Time;durP1;ratioP1;P1;durP2;ratioP2;P2;SDS_P1;SDS_P2;PMS_P1;PMS_P2;Temp;Humidity;BMP_temperature;BMP_pressure;BME280_temperature;BME280_humidity;BME280_pressure;Samples;Min_cycle;Max_cycle;Signal;HPM_P1;HPM_P2
2021/03/06 00:02:15;;;;;;;;;;;0.70;93.00;;;;;;4950092;28;19919;-78
2021/03/06 00:04:40;;;;;;;;;;;0.70;93.10;;;;;;4950574;28;19910;-77
2021/03/06 00:07:10;;;;;;;;;;;0.80;93.30;;;;;;4950386;29;19919;-77
2021/03/06 00:09:41;;;;;;;;;;;0.70;93.00;;;;;;4952404;28;19914;-77
2021/03/06 00:12:06;;;;;;;;;;;0.70;93.00;;;;;;4950143;29;19919;-77
2021/03/06 00:14:32;;;;;;;;;;;0.70;93.20;;;;;;4947151;28;19910;-77
2021/03/06 00:17:02;;;;;;;;;;;0.70;93.10;;;;;;4932547;29;19934;-77
2021/03/06 00:19:30;;;;;;;;;;;0.70;93.50;;;;;;4951775;28;20005;-77
2021/03/06 00:21:56;;;;;;;;;;;0.70;93.50;;;;;;4951505;28;19929;-77
2021/03/06 00:24:23;;;;;;;;;;;0.70;93.20;;;;;;4952675;28;19910;-77
2021/03/06 00:26:49;;;;;;;;;;;0.60;93.50;;;;;;4947536;29;20275;-77
2021/03/06 00:29:15;;;;;;;;;;;0.70;93.80;;;;;;4951137;28;19993;-77
2021/03/06 00:31:43;;;;;;;;;;;0.60;93.90;;;;;;4949636;28;19926;-77
2021/03/06 00:34:09;;;;;;;;;;;0.60;93.60;;;;;;4948831;28;19977;-76
2021/03/06 00:36:35;;;;;;;;;;;0.60;93.70;;;;;;4949510;28;20298;-77
2021/03/06 00:39:03;;;;;;;;;;;0.60;93.70;;;;;;4951231;28;19921;-75
2021/03/06 00:41:28;;;;;;;;;;;0.60;93.80;;;;;;4948573;29;19961;-76
2021/03/06 00:43:54;;;;;;;;;;;0.60;93.90;;;;;;4946146;29;20292;-76
2021/03/06 00:46:20;;;;;;;;;;;0.60;93.90;;;;;;4950254;28;19914;-75
2021/03/06 00:48:47;;;;;;;;;;;0.60;94.00;;;;;;4949676;28;19918;-75
2021/03/06 00:51:13;;;;;;;;;;;0.60;93.80;;;;;;4947705;29;19980;-75
2021/03/06 00:53:41;;;;;;;;;;;0.50;94.10;;;;;;4948081;28;20815;-75
2021/03/06 00:56:09;;;;;;;;;;;0.50;94.20;;;;;;4949779;29;19910;-75
2021/03/06 00:58:34;;;;;;;;;;;0.50;94.30;;;;;;4961633;28;19918;-75
2021/03/06 01:01:02;;;;;;;;;;;0.50;94.00;;;;;;4950055;29;20049;-75
2021/03/06 01:03:28;;;;;;;;;;;0.50;94.20;;;;;;4946918;28;19925;-75
2021/03/06 01:05:53;;;;;;;;;;;0.50;94.70;;;;;;4948851;28;19910;-75
2021/03/06 01:08:21;;;;;;;;;;;0.50;94.50;;;;;;4948373;29;19929;-75
2021/03/06 01:10:47;;;;;;;;;;;0.50;94.40;;;;;;4965964;28;20305;-75
2021/03/06 01:13:13;;;;;;;;;;;0.50;94.30;;;;;;4949040;29;19918;-75
2021/03/06 01:15:38;;;;;;;;;;;0.50;94.50;;;;;;4950169;28;20252;-75
2021/03/06 01:18:05;;;;;;;;;;;0.50;94.50;;;;;;4948689;28;19914;-75
2021/03/06 01:20:30;;;;;;;;;;;0.40;94.60;;;;;;4953551;28;19910;-75
2021/03/06 01:22:56;;;;;;;;;;;0.40;94.30;;;;;;4947532;28;19915;-75
2021/03/06 01:25:24;;;;;;;;;;;0.40;94.30;;;;;;4946420;29;19914;-75
2021/03/06 01:27:49;;;;;;;;;;;0.40;94.90;;;;;;4948141;29;19914;-74
2021/03/06 01:30:18;;;;;;;;;;;0.40;95.10;;;;;;4948394;28;19934;-75
2021/03/06 01:32:43;;;;;;;;;;;0.40;95.10;;;;;;4956254;28;19922;-75
2021/03/06 01:35:09;;;;;;;;;;;0.40;95.00;;;;;;4947374;29;19911;-75
2021/03/06 01:37:38;;;;;;;;;;;0.30;95.40;;;;;;4949412;28;19952;-76
2021/03/06 01:40:08;;;;;;;;;;;0.30;95.30;;;;;;4948474;29;19921;-75
2021/03/06 01:42:34;;;;;;;;;;;0.30;94.80;;;;;;4946875;29;19941;-75
2021/03/06 01:45:00;;;;;;;;;;;0.30;95.00;;;;;;4949162;28;20001;-78
2021/03/06 01:47:25;;;;;;;;;;;0.30;95.30;;;;;;4949971;29;20327;-76
2021/03/06 01:49:53;;;;;;;;;;;0.30;95.80;;;;;;4947389;29;19922;-76
2021/03/06 01:52:18;;;;;;;;;;;0.30;95.80;;;;;;4949470;29;19919;-76
2021/03/06 01:54:44;;;;;;;;;;;0.30;95.60;;;;;;4948059;29;20301;-76
2021/03/06 01:57:10;;;;;;;;;;;0.30;95.70;;;;;;4946927;28;19921;-76
2021/03/06 01:59:37;;;;;;;;;;;0.30;95.80;;;;;;4939731;29;19972;-76
2021/03/06 02:02:06;;;;;;;;;;;0.30;95.60;;;;;;4943872;29;20336;-76
2021/03/06 02:04:35;;;;;;;;;;;0.30;95.60;;;;;;4950186;29;20000;-76
2021/03/06 02:07:01;;;;;;;;;;;0.20;95.80;;;;;;4954196;28;19929;-76
2021/03/06 02:09:29;;;;;;;;;;;0.20;95.90;;;;;;4953881;28;20399;-76
2021/03/06 02:12:15;;;;;;;;;;;0.20;96.10;;;;;;4951513;29;19922;-76
2021/03/06 02:14:52;;;;;;;;;;;0.20;95.80;;;;;;4952983;29;20046;-76
2021/03/06 02:17:30;;;;;;;;;;;0.20;95.80;;;;;;4952707;28;19922;-76
2021/03/06 02:20:08;;;;;;;;;;;0.20;96.20;;;;;;4951972;28;19925;-76
2021/03/06 02:22:36;;;;;;;;;;;0.20;95.70;;;;;;4951804;29;19918;-76
2021/03/06 02:25:22;;;;;;;;;;;0.20;96.10;;;;;;4952275;28;19914;-76
2021/03/06 02:28:05;;;;;;;;;;;0.20;96.40;;;;;;4927075;28;20371;-76
2021/03/06 02:30:33;;;;;;;;;;;0.10;96.10;;;;;;4970700;28;19921;-76
2021/03/06 02:33:01;;;;;;;;;;;0.10;96.10;;;;;;4946321;29;19929;-76
2021/03/06 02:35:27;;;;;;;;;;;0.10;96.10;;;;;;4952461;29;19914;-76
2021/03/06 02:38:11;;;;;;;;;;;0.10;95.50;;;;;;4948590;29;19911;-76
2021/03/06 02:40:37;;;;;;;;;;;0.10;96.10;;;;;;4970221;28;19918;-76
2021/03/06 02:43:03;;;;;;;;;;;0.10;95.40;;;;;;4948999;28;20061;-76
2021/03/06 02:45:31;;;;;;;;;;;0.10;95.60;;;;;;4952142;29;19937;-76
2021/03/06 02:47:56;;;;;;;;;;;0.10;95.50;;;;;;4948003;29;19965;-75
2021/03/06 02:50:22;;;;;;;;;;;0.00;96.30;;;;;;4949889;29;19923;-76
2021/03/06 02:52:50;;;;;;;;;;;0.00;96.20;;;;;;4951426;29;19914;-76
2021/03/06 02:55:17;;;;;;;;;;;0.00;96.60;;;;;;4951438;29;19922;-76
2021/03/06 02:57:51;;;;;;;;;;;0.00;95.70;;;;;;4951305;28;20001;-76
2021/03/06 03:00:24;;;;;;;;;;;0.00;96.20;;;;;;4947100;29;19942;-76
2021/03/06 03:03:08;;;;;;;;;;;0.00;96.20;;;;;;4961881;28;19915;-76
2021/03/06 03:05:37;;;;;;;;;;;0.00;96.50;;;;;;4952270;28;20820;-76
2021/03/06 03:08:05;;;;;;;;;;;0.00;95.70;;;;;;4949753;29;19918;-76
2021/03/06 03:10:32;;;;;;;;;;;0.00;95.70;;;;;;4952848;29;19928;-76
2021/03/06 03:13:03;;;;;;;;;;;-0.10;96.00;;;;;;4946692;29;19914;-76
2021/03/06 03:15:35;;;;;;;;;;;0.00;96.30;;;;;;4950600;29;19921;-76
2021/03/06 03:18:03;;;;;;;;;;;-0.10;96.20;;;;;;4951746;29;20064;-76
2021/03/06 03:20:41;;;;;;;;;;;-0.10;96.30;;;;;;4951619;28;20360;-75
2021/03/06 03:23:26;;;;;;;;;;;-0.10;96.00;;;;;;4946781;29;19929;-75
2021/03/06 03:25:51;;;;;;;;;;;-0.10;96.20;;;;;;4951559;28;19914;-75
2021/03/06 03:28:17;;;;;;;;;;;-0.10;96.50;;;;;;4948274;29;19911;-75
2021/03/06 03:30:45;;;;;;;;;;;-0.10;96.20;;;;;;4956900;28;19920;-76
2021/03/06 03:33:11;;;;;;;;;;;-0.10;96.50;;;;;;4948451;29;20004;-76
2021/03/06 03:35:40;;;;;;;;;;;-0.10;96.30;;;;;;4949112;28;19911;-75
2021/03/06 03:38:06;;;;;;;;;;;-0.10;96.10;;;;;;4948602;28;19914;-75
2021/03/06 03:40:34;;;;;;;;;;;-0.10;96.60;;;;;;4947585;29;20423;-75
2021/03/06 03:43:02;;;;;;;;;;;-0.10;95.90;;;;;;4964251;28;19910;-76
2021/03/06 03:45:28;;;;;;;;;;;-0.20;96.00;;;;;;4950164;29;19910;-75
2021/03/06 03:47:56;;;;;;;;;;;-0.20;96.10;;;;;;4958433;28;20504;-76
2021/03/06 03:50:21;;;;;;;;;;;-0.20;95.70;;;;;;4947996;28;19921;-75
2021/03/06 03:52:52;;;;;;;;;;;-0.20;95.80;;;;;;4952164;28;19915;-76
2021/03/06 03:55:18;;;;;;;;;;;-0.20;95.80;;;;;;4968636;28;19930;-73
2021/03/06 03:57:46;;;;;;;;;;;-0.20;96.20;;;;;;4962351;28;19918;-73
2021/03/06 04:00:13;;;;;;;;;;;-0.30;95.70;;;;;;4953667;28;19941;-75
2021/03/06 04:02:38;;;;;;;;;;;-0.20;95.70;;;;;;4949287;28;19917;-76
2021/03/06 04:05:04;;;;;;;;;;;-0.20;96.10;;;;;;4948563;28;19911;-75
2021/03/06 04:07:39;;;;;;;;;;;-0.20;96.00;;;;;;4929492;29;19918;-76
2021/03/06 04:10:07;;;;;;;;;;;-0.20;96.00;;;;;;4950900;29;19918;-75
2021/03/06 04:12:33;;;;;;;;;;;-0.20;96.10;;;;;;4951065;28;20236;-75
2021/03/06 04:14:58;;;;;;;;;;;-0.30;96.50;;;;;;4948942;29;19910;-76
2021/03/06 04:17:24;;;;;;;;;;;-0.30;96.50;;;;;;4950056;29;19914;-75
2021/03/06 04:19:49;;;;;;;;;;;-0.30;96.20;;;;;;4946068;28;19910;-76
2021/03/06 04:22:15;;;;;;;;;;;-0.30;95.90;;;;;;4952278;29;19964;-75
2021/03/06 04:24:41;;;;;;;;;;;-0.30;96.50;;;;;;4947012;28;19985;-76
2021/03/06 04:27:06;;;;;;;;;;;-0.30;96.40;;;;;;4950513;29;19962;-75
2021/03/06 04:29:34;;;;;;;;;;;-0.30;96.60;;;;;;4943845;29;19914;-75
2021/03/06 04:32:04;;;;;;;;;;;-0.30;96.30;;;;;;4948592;29;19926;-75
2021/03/06 04:34:30;;;;;;;;;;;-0.30;96.20;;;;;;4951705;28;19928;-75
2021/03/06 04:36:56;;;;;;;;;;;-0.40;96.50;;;;;;4949047;28;19956;-75
2021/03/06 04:39:21;;;;;;;;;;;-0.40;96.60;;;;;;4951721;28;19950;-76
2021/03/06 04:41:49;;;;;;;;;;;-0.40;96.10;;;;;;4946094;29;19910;-76
2021/03/06 04:44:15;;;;;;;;;;;-0.40;96.40;;;;;;4950336;29;19910;-75
2021/03/06 04:46:40;;;;;;;;;;;-0.40;96.30;;;;;;4949454;29;19911;-75
2021/03/06 04:49:06;;;;;;;;;;;-0.40;95.70;;;;;;4947621;28;19926;-75
2021/03/06 04:51:31;;;;;;;;;;;-0.40;96.50;;;;;;4947839;29;20360;-76
2021/03/06 04:53:57;;;;;;;;;;;-0.40;96.40;;;;;;4947591;29;20253;-76
2021/03/06 04:56:25;;;;;;;;;;;-0.40;96.60;;;;;;4950368;29;20353;-76
2021/03/06 04:58:51;;;;;;;;;;;-0.40;96.10;;;;;;4963339;28;19914;-75
2021/03/06 05:01:18;;;;;;;;;;;-0.50;96.20;;;;;;4967709;28;19949;-75
2021/03/06 05:03:44;;;;;;;;;;;-0.50;95.90;;;;;;4948319;28;19917;-75
2021/03/06 05:06:10;;;;;;;;;;;-0.50;96.10;;;;;;4951369;28;19910;-75
2021/03/06 05:08:39;;;;;;;;;;;-0.50;96.50;;;;;;4948255;29;19914;-75
2021/03/06 05:11:05;;;;;;;;;;;-0.50;96.20;;;;;;4962402;28;20001;-75
2021/03/06 05:13:36;;;;;;;;;;;-0.50;96.10;;;;;;4954789;28;20327;-75
2021/03/06 05:16:02;;;;;;;;;;;-0.50;96.40;;;;;;4957920;28;19915;-75
2021/03/06 05:18:29;;;;;;;;;;;-0.60;96.10;;;;;;4946434;29;20583;-75
2021/03/06 05:20:55;;;;;;;;;;;-0.60;96.30;;;;;;4966450;28;19914;-75
2021/03/06 05:23:22;;;;;;;;;;;-0.60;96.50;;;;;;4946885;28;19910;-76
2021/03/06 05:25:50;;;;;;;;;;;-0.60;96.20;;;;;;4947848;29;20787;-76
2021/03/06 05:28:21;;;;;;;;;;;-0.60;96.80;;;;;;4947818;29;19926;-75
2021/03/06 05:30:47;;;;;;;;;;;-0.60;97.30;;;;;;4947880;29;19919;-75
2021/03/06 05:33:13;;;;;;;;;;;-0.60;96.90;;;;;;4949304;28;20423;-75
2021/03/06 05:35:43;;;;;;;;;;;-0.60;97.40;;;;;;4945613;28;20225;-75
2021/03/06 05:38:14;;;;;;;;;;;-0.60;96.90;;;;;;4965676;28;19925;-75
2021/03/06 05:40:40;;;;;;;;;;;-0.60;96.80;;;;;;4966225;28;21366;-75
2021/03/06 05:43:11;;;;;;;;;;;-0.60;96.50;;;;;;4967039;28;19914;-75
2021/03/06 05:45:36;;;;;;;;;;;-0.60;96.70;;;;;;4948209;28;19921;-75
2021/03/06 05:48:02;;;;;;;;;;;-0.60;96.50;;;;;;4946007;29;19918;-76
2021/03/06 05:50:28;;;;;;;;;;;-0.60;96.40;;;;;;4947095;29;20005;-75
2021/03/06 05:52:55;;;;;;;;;;;-0.60;96.40;;;;;;4966290;28;19926;-75
2021/03/06 05:55:23;;;;;;;;;;;-0.60;96.60;;;;;;4949027;28;19910;-75
2021/03/06 05:57:51;;;;;;;;;;;-0.60;96.60;;;;;;4950128;29;19973;-75
2021/03/06 06:00:17;;;;;;;;;;;-0.60;96.30;;;;;;4947320;29;19981;-75
2021/03/06 06:02:42;;;;;;;;;;;-0.60;96.10;;;;;;4947509;29;19922;-75
2021/03/06 06:05:10;;;;;;;;;;;-0.60;96.60;;;;;;4947134;28;19910;-75
2021/03/06 06:07:38;;;;;;;;;;;-0.70;96.70;;;;;;4946728;29;19941;-75
2021/03/06 06:10:04;;;;;;;;;;;-0.70;97.10;;;;;;4965216;28;20366;-75
2021/03/06 06:12:29;;;;;;;;;;;-0.70;96.70;;;;;;4947525;29;19914;-75
2021/03/06 06:14:55;;;;;;;;;;;-0.70;96.70;;;;;;4947342;28;20628;-75
2021/03/06 06:17:22;;;;;;;;;;;-0.70;96.70;;;;;;4946396;28;20038;-75
2021/03/06 06:19:47;;;;;;;;;;;-0.70;97.20;;;;;;4946674;29;20038;-75
2021/03/06 06:22:17;;;;;;;;;;;-0.70;97.30;;;;;;4964277;28;20403;-75
2021/03/06 06:24:43;;;;;;;;;;;-0.70;97.60;;;;;;4947644;29;20017;-76
2021/03/06 06:27:09;;;;;;;;;;;-0.70;98.40;;;;;;4949295;28;19921;-75
2021/03/06 06:29:45;;;;;;;;;;;-0.70;96.90;;;;;;4946832;28;19918;-75
2021/03/06 06:32:14;;;;;;;;;;;-0.70;97.20;;;;;;4950918;28;19922;-75
2021/03/06 06:34:40;;;;;;;;;;;-0.70;97.30;;;;;;4945649;29;19914;-75
2021/03/06 06:37:12;;;;;;;;;;;-0.70;97.80;;;;;;4945791;29;19925;-75
2021/03/06 06:39:37;;;;;;;;;;;-0.70;97.80;;;;;;4944442;29;20614;-75
2021/03/06 06:42:05;;;;;;;;;;;-0.70;97.50;;;;;;4947838;28;19993;-75
2021/03/06 06:44:33;;;;;;;;;;;-0.70;96.90;;;;;;4947676;28;19956;-75
2021/03/06 06:47:08;;;;;;;;;;;-0.70;96.90;;;;;;4950385;28;20069;-76
2021/03/06 06:49:44;;;;;;;;;;;-0.70;97.70;;;;;;4947962;29;20412;-75
2021/03/06 06:52:10;;;;;;;;;;;-0.80;97.70;;;;;;4950707;29;19914;-75
2021/03/06 06:54:38;;;;;;;;;;;-0.70;97.70;;;;;;4947693;29;19921;-75
2021/03/06 06:57:07;;;;;;;;;;;-0.70;97.40;;;;;;4947196;28;20332;-75
2021/03/06 06:59:33;;;;;;;;;;;-0.70;97.40;;;;;;4949905;29;19918;-75
2021/03/06 07:01:58;;;;;;;;;;;-0.70;97.80;;;;;;4951492;29;20026;-76
2021/03/06 07:04:24;;;;;;;;;;;-0.70;97.60;;;;;;4950967;29;20348;-76
2021/03/06 07:07:00;;;;;;;;;;;-0.70;97.90;;;;;;4951056;29;20324;-76
2021/03/06 07:09:26;;;;;;;;;;;-0.70;97.50;;;;;;4948135;29;19929;-76
2021/03/06 07:11:51;;;;;;;;;;;-0.70;97.90;;;;;;4950448;28;19922;-75
2021/03/06 07:14:38;;;;;;;;;;;-0.70;97.70;;;;;;4949640;28;19922;-75
2021/03/06 07:17:03;;;;;;;;;;;-0.70;98.00;;;;;;4948923;29;19996;-76
2021/03/06 07:19:32;;;;;;;;;;;-0.60;97.90;;;;;;4962292;28;20520;-75
2021/03/06 07:21:58;;;;;;;;;;;-0.60;98.60;;;;;;4946665;29;20391;-74
2021/03/06 07:24:30;;;;;;;;;;;-0.60;98.20;;;;;;4951213;29;19911;-74
2021/03/06 07:26:55;;;;;;;;;;;-0.60;98.50;;;;;;4949148;29;20006;-74
2021/03/06 07:29:24;;;;;;;;;;;-0.50;98.20;;;;;;4952559;29;19977;-74
2021/03/06 07:31:50;;;;;;;;;;;-0.50;99.00;;;;;;4949975;28;19965;-74
2021/03/06 07:34:18;;;;;;;;;;;-0.50;98.30;;;;;;4949779;29;20395;-74
2021/03/06 07:36:46;;;;;;;;;;;-0.40;98.10;;;;;;4929728;29;19911;-74
2021/03/06 07:39:13;;;;;;;;;;;-0.40;98.30;;;;;;4946321;29;20034;-75
2021/03/06 07:41:41;;;;;;;;;;;-0.40;99.60;;;;;;4950360;28;19978;-75
2021/03/06 07:44:09;;;;;;;;;;;-0.40;99.90;;;;;;4949386;28;19950;-74
2021/03/06 07:46:36;;;;;;;;;;;-0.30;99.90;;;;;;4950344;29;20358;-74
2021/03/06 07:49:01;;;;;;;;;;;-0.30;99.90;;;;;;4930472;29;19946;-74
2021/03/06 07:51:28;;;;;;;;;;;-0.30;99.90;;;;;;4948819;29;20404;-74
2021/03/06 07:53:56;;;;;;;;;;;-0.30;99.80;;;;;;4949311;29;19915;-74
2021/03/06 07:56:26;;;;;;;;;;;-0.20;97.80;;;;;;4966583;28;19917;-74
2021/03/06 07:58:52;;;;;;;;;;;-0.20;97.70;;;;;;4949296;28;19911;-74
2021/03/06 08:01:27;;;;;;;;;;;-0.20;97.90;;;;;;4950469;28;20373;-74
2021/03/06 08:03:55;;;;;;;;;;;-0.20;98.50;;;;;;4948133;29;20458;-74
2021/03/06 08:06:21;;;;;;;;;;;-0.10;97.10;;;;;;4949468;28;20016;-74
2021/03/06 08:08:47;;;;;;;;;;;-0.10;97.80;;;;;;4950699;28;19937;-74
2021/03/06 08:11:22;;;;;;;;;;;-0.10;97.20;;;;;;4947252;29;20474;-74
2021/03/06 08:13:49;;;;;;;;;;;0.00;97.40;;;;;;4946158;29;19958;-74
2021/03/06 08:16:35;;;;;;;;;;;0.00;96.90;;;;;;4948796;28;19987;-74
2021/03/06 08:19:11;;;;;;;;;;;0.00;96.90;;;;;;4946616;28;19911;-74
2021/03/06 08:21:49;;;;;;;;;;;0.10;97.50;;;;;;4948107;28;19930;-74
2021/03/06 08:24:18;;;;;;;;;;;0.10;97.70;;;;;;4947671;29;20279;-74
2021/03/06 08:26:53;;;;;;;;;;;0.20;97.70;;;;;;4948474;28;20356;-74
2021/03/06 08:29:27;;;;;;;;;;;0.20;97.40;;;;;;4947714;29;20025;-74
2021/03/06 08:32:00;;;;;;;;;;;0.30;97.40;;;;;;4961855;28;19914;-75
2021/03/06 08:34:32;;;;;;;;;;;0.40;96.70;;;;;;4949644;28;19915;-75
2021/03/06 08:37:19;;;;;;;;;;;0.50;95.80;;;;;;4948720;28;19918;-75
2021/03/06 08:39:51;;;;;;;;;;;0.50;95.80;;;;;;4950341;29;19994;-75
2021/03/06 08:42:20;;;;;;;;;;;0.60;97.00;;;;;;4950695;28;20340;-75
2021/03/06 08:44:46;;;;;;;;;;;0.70;99.10;;;;;;4949197;29;19919;-75
2021/03/06 08:47:14;;;;;;;;;;;0.90;95.60;;;;;;4949339;28;19921;-75
2021/03/06 08:49:39;;;;;;;;;;;1.10;99.90;;;;;;4947803;28;19921;-75
2021/03/06 08:52:05;;;;;;;;;;;1.20;93.30;;;;;;4946526;29;20351;-75
2021/03/06 08:54:42;;;;;;;;;;;1.40;92.60;;;;;;4945631;28;19910;-75
2021/03/06 08:57:21;;;;;;;;;;;1.60;93.90;;;;;;4949026;29;19910;-76
2021/03/06 08:59:46;;;;;;;;;;;1.70;90.50;;;;;;4948666;29;19946;-76
2021/03/06 09:02:12;;;;;;;;;;;1.80;95.10;;;;;;4950206;29;19914;-76
2021/03/06 09:04:43;;;;;;;;;;;2.00;94.20;;;;;;4949514;28;19929;-76
2021/03/06 09:07:11;;;;;;;;;;;2.20;92.40;;;;;;4947538;28;19993;-76
2021/03/06 09:09:39;;;;;;;;;;;2.40;92.70;;;;;;4950366;29;19953;-77
2021/03/06 09:12:07;;;;;;;;;;;2.60;88.10;;;;;;4948390;28;19922;-78
2021/03/06 09:14:33;;;;;;;;;;;2.80;81.90;;;;;;4945755;28;19910;-78
2021/03/06 09:17:01;;;;;;;;;;;3.00;83.30;;;;;;4946416;28;20362;-78
2021/03/06 09:19:30;;;;;;;;;;;3.10;84.10;;;;;;4947841;29;19954;-78
2021/03/06 09:21:59;;;;;;;;;;;3.20;83.10;;;;;;4954114;28;19954;-78
2021/03/06 09:24:24;;;;;;;;;;;3.30;87.60;;;;;;4943858;29;20033;-78
2021/03/06 09:26:53;;;;;;;;;;;3.40;79.60;;;;;;4950428;29;20054;-78
2021/03/06 09:29:18;;;;;;;;;;;3.60;88.10;;;;;;4949043;28;19926;-79
2021/03/06 09:31:48;;;;;;;;;;;3.70;82.30;;;;;;4946424;28;19911;-79
2021/03/06 09:34:16;;;;;;;;;;;3.80;80.50;;;;;;4948490;29;19925;-79
2021/03/06 09:36:42;;;;;;;;;;;3.80;78.00;;;;;;4961815;28;19922;-79
2021/03/06 09:39:13;;;;;;;;;;;3.90;79.40;;;;;;4950249;28;20034;-79
2021/03/06 09:41:38;;;;;;;;;;;4.00;78.10;;;;;;4945923;29;19914;-79
2021/03/06 09:44:04;;;;;;;;;;;4.10;78.30;;;;;;4946272;28;19997;-79
2021/03/06 09:46:32;;;;;;;;;;;4.20;77.60;;;;;;4946075;28;19959;-79
2021/03/06 09:49:01;;;;;;;;;;;4.20;75.10;;;;;;4966141;28;19914;-79
2021/03/06 09:51:40;;;;;;;;;;;4.30;79.80;;;;;;4947004;29;19919;-80
2021/03/06 09:54:10;;;;;;;;;;;4.40;74.90;;;;;;4945601;29;20005;-79
2021/03/06 09:56:44;;;;;;;;;;;4.40;70.70;;;;;;4950084;29;19914;-79
2021/03/06 09:59:10;;;;;;;;;;;4.60;71.30;;;;;;4943767;29;20355;-79
2021/03/06 10:01:35;;;;;;;;;;;4.60;68.80;;;;;;4946745;29;19984;-79
2021/03/06 10:04:08;;;;;;;;;;;4.70;68.10;;;;;;4942250;28;20061;-79
2021/03/06 10:06:35;;;;;;;;;;;4.80;70.20;;;;;;4944428;29;20349;-81
2021/03/06 10:09:03;;;;;;;;;;;4.80;66.30;;;;;;4944388;28;19941;-82
2021/03/06 10:11:29;;;;;;;;;;;4.90;62.00;;;;;;4958312;28;19965;-81
2021/03/06 10:13:59;;;;;;;;;;;4.90;72.60;;;;;;4945594;28;19921;-81
2021/03/06 10:16:25;;;;;;;;;;;4.90;65.10;;;;;;4962338;28;19929;-81
2021/03/06 10:18:50;;;;;;;;;;;5.00;64.50;;;;;;4949797;28;19911;-80
2021/03/06 10:21:19;;;;;;;;;;;5.10;62.90;;;;;;4950470;28;20356;-82
2021/03/06 10:23:47;;;;;;;;;;;5.10;64.70;;;;;;4945408;28;19910;-82
2021/03/06 10:26:23;;;;;;;;;;;5.20;67.70;;;;;;4945333;28;19910;-81
2021/03/06 10:28:52;;;;;;;;;;;5.20;68.50;;;;;;4950656;29;20375;-82
2021/03/06 10:31:30;;;;;;;;;;;5.40;66.60;;;;;;4951681;28;19911;-81
2021/03/06 10:33:56;;;;;;;;;;;5.40;64.60;;;;;;4266731;28;10000774;-81
2021/03/06 10:36:22;;;;;;;;;;;5.60;62.40;;;;;;4947749;29;19918;-81
2021/03/06 10:38:48;;;;;;;;;;;5.70;66.40;;;;;;4950153;28;20512;-81
2021/03/06 10:41:16;;;;;;;;;;;5.70;63.70;;;;;;4948736;28;19910;-80
2021/03/06 10:43:43;;;;;;;;;;;5.80;62.60;;;;;;4949395;29;20394;-81
2021/03/06 10:46:17;;;;;;;;;;;5.90;65.60;;;;;;4947733;28;19914;-81
2021/03/06 10:48:43;;;;;;;;;;;6.00;64.80;;;;;;4950277;29;19969;-81
2021/03/06 10:51:11;;;;;;;;;;;6.00;62.70;;;;;;4947168;29;20001;-82
2021/03/06 10:53:37;;;;;;;;;;;6.00;63.30;;;;;;4947555;28;19922;-81
2021/03/06 10:56:06;;;;;;;;;;;6.10;56.60;;;;;;4608934;28;9999758;-77
2021/03/06 10:58:45;;;;;;;;;;;6.20;63.60;;;;;;4951148;29;19910;-79
2021/03/06 11:01:12;;;;;;;;;;;6.30;63.10;;;;;;4948457;28;20264;-76
2021/03/06 11:03:47;;;;;;;;;;;6.40;60.90;;;;;;4964552;28;19942;-81
2021/03/06 11:06:13;;;;;;;;;;;6.60;61.50;;;;;;4946783;28;19930;-81
2021/03/06 11:08:39;;;;;;;;;;;6.70;63.30;;;;;;4947390;28;19914;-79
2021/03/06 11:11:04;;;;;;;;;;;6.80;62.00;;;;;;4947989;28;20009;-79
2021/03/06 11:13:45;;;;;;;;;;;6.90;58.80;;;;;;4949885;29;20820;-79
2021/03/06 11:16:11;;;;;;;;;;;7.00;54.10;;;;;;4948701;28;19914;-79
2021/03/06 11:18:37;;;;;;;;;;;7.00;57.80;;;;;;4951260;28;20448;-80
2021/03/06 11:21:05;;;;;;;;;;;7.00;59.30;;;;;;4950929;28;19946;-79
2021/03/06 11:23:33;;;;;;;;;;;7.10;58.90;;;;;;4951006;29;19911;-79
2021/03/06 11:26:03;;;;;;;;;;;7.30;57.70;;;;;;4951074;28;19930;-79
2021/03/06 11:28:29;;;;;;;;;;;7.50;56.20;;;;;;4950400;28;19925;-79
2021/03/06 11:30:57;;;;;;;;;;;7.70;49.70;;;;;;4951356;28;19906;-79
2021/03/06 11:33:25;;;;;;;;;;;7.90;58.30;;;;;;4935229;29;19919;-80
2021/03/06 11:35:53;;;;;;;;;;;8.20;57.00;;;;;;4934108;29;19926;-78
2021/03/06 11:38:20;;;;;;;;;;;8.30;51.90;;;;;;4946362;28;20061;-78
2021/03/06 11:40:49;;;;;;;;;;;8.20;53.90;;;;;;4963743;28;19914;-78
2021/03/06 11:43:14;;;;;;;;;;;8.40;49.70;;;;;;4964118;28;19913;-78
2021/03/06 11:45:40;;;;;;;;;;;8.60;51.60;;;;;;4949530;28;19911;-78
2021/03/06 11:48:06;;;;;;;;;;;8.80;46.40;;;;;;4949984;28;19918;-78
2021/03/06 11:50:34;;;;;;;;;;;9.00;50.20;;;;;;4951123;29;19924;-78
2021/03/06 11:53:00;;;;;;;;;;;8.90;50.00;;;;;;4947590;29;19925;-78
2021/03/06 11:55:28;;;;;;;;;;;8.90;48.30;;;;;;4949415;29;19910;-78
2021/03/06 11:57:54;;;;;;;;;;;9.10;46.60;;;;;;4930927;29;20378;-78
2021/03/06 12:00:22;;;;;;;;;;;9.40;47.00;;;;;;4928868;29;20005;-77
2021/03/06 12:02:48;;;;;;;;;;;9.50;48.00;;;;;;4949773;28;19922;-78
2021/03/06 12:05:14;;;;;;;;;;;9.50;45.70;;;;;;4943391;28;19911;-78
2021/03/06 12:07:42;;;;;;;;;;;9.20;47.80;;;;;;4949031;28;19921;-80
2021/03/06 12:10:08;;;;;;;;;;;9.30;48.70;;;;;;4963158;28;19918;-80
2021/03/06 12:12:34;;;;;;;;;;;9.20;46.60;;;;;;4946599;29;19918;-78
2021/03/06 12:15:00;;;;;;;;;;;9.30;51.00;;;;;;4948366;28;19933;-80
2021/03/06 12:17:26;;;;;;;;;;;9.10;48.10;;;;;;4928994;29;20051;-75
2021/03/06 12:19:51;;;;;;;;;;;9.10;50.20;;;;;;4946717;28;19918;-75
2021/03/06 12:22:19;;;;;;;;;;;8.90;46.80;;;;;;4947473;28;19945;-75
2021/03/06 12:24:46;;;;;;;;;;;8.70;46.80;;;;;;4929430;29;19911;-75
2021/03/06 12:27:12;;;;;;;;;;;8.40;47.00;;;;;;4946196;28;19911;-75
2021/03/06 12:29:38;;;;;;;;;;;8.30;46.30;;;;;;4951227;28;19914;-75
2021/03/06 12:32:04;;;;;;;;;;;8.20;49.40;;;;;;4947234;28;19980;-75
2021/03/06 12:34:30;;;;;;;;;;;8.00;48.40;;;;;;4936733;29;19965;-78
2021/03/06 12:36:55;;;;;;;;;;;7.90;48.60;;;;;;4925314;29;19922;-78
2021/03/06 12:39:21;;;;;;;;;;;7.80;46.90;;;;;;4948899;28;19985;-78
2021/03/06 12:41:47;;;;;;;;;;;7.70;48.10;;;;;;4946963;28;20344;-78
2021/03/06 12:44:15;;;;;;;;;;;7.60;48.10;;;;;;4944989;28;19918;-78
2021/03/06 12:46:40;;;;;;;;;;;7.40;48.90;;;;;;4962476;28;20468;-78
2021/03/06 12:49:06;;;;;;;;;;;7.40;49.20;;;;;;4946130;28;19925;-78
2021/03/06 12:51:32;;;;;;;;;;;7.30;53.60;;;;;;4947336;29;19922;-78
2021/03/06 12:53:57;;;;;;;;;;;7.20;52.70;;;;;;4965681;28;19925;-78
2021/03/06 12:56:23;;;;;;;;;;;7.20;51.10;;;;;;4963546;28;19949;-78
2021/03/06 12:58:49;;;;;;;;;;;7.10;50.90;;;;;;4938059;28;19919;-78
2021/03/06 13:01:17;;;;;;;;;;;7.00;49.10;;;;;;4962106;28;19914;-78
2021/03/06 13:03:42;;;;;;;;;;;7.00;53.40;;;;;;4947764;28;19910;-78
2021/03/06 13:06:08;;;;;;;;;;;6.90;51.30;;;;;;4936281;29;19918;-77
2021/03/06 13:08:34;;;;;;;;;;;6.90;54.60;;;;;;4935983;29;20379;-79
2021/03/06 13:11:00;;;;;;;;;;;7.00;52.60;;;;;;4935574;29;19921;-78
2021/03/06 13:13:26;;;;;;;;;;;7.00;54.10;;;;;;4946783;28;19923;-78
2021/03/06 13:15:51;;;;;;;;;;;7.20;54.70;;;;;;4947320;29;19910;-78
2021/03/06 13:18:17;;;;;;;;;;;7.30;53.00;;;;;;4947233;28;19914;-78
2021/03/06 13:20:43;;;;;;;;;;;7.40;52.40;;;;;;4946380;28;20004;-78
2021/03/06 13:23:08;;;;;;;;;;;7.50;53.50;;;;;;4926057;29;19934;-78
2021/03/06 13:25:40;;;;;;;;;;;7.60;54.20;;;;;;4949721;28;19910;-78
2021/03/06 13:28:10;;;;;;;;;;;7.60;55.00;;;;;;4944258;29;19968;-78
2021/03/06 13:30:36;;;;;;;;;;;7.70;52.70;;;;;;4950245;28;19915;-78
2021/03/06 13:33:02;;;;;;;;;;;7.80;54.80;;;;;;4945361;29;19922;-78
2021/03/06 13:35:27;;;;;;;;;;;7.80;53.30;;;;;;4931526;29;20460;-78
2021/03/06 13:37:53;;;;;;;;;;;7.80;53.90;;;;;;4940917;28;19949;-78
2021/03/06 13:40:19;;;;;;;;;;;7.70;55.60;;;;;;4963368;28;19929;-78
2021/03/06 13:42:44;;;;;;;;;;;7.60;53.30;;;;;;4946103;28;20376;-78
2021/03/06 13:45:10;;;;;;;;;;;7.50;57.10;;;;;;4946209;29;19922;-78
2021/03/06 13:47:36;;;;;;;;;;;7.40;56.00;;;;;;4927486;29;20118;-78
2021/03/06 13:50:03;;;;;;;;;;;7.40;54.80;;;;;;4947828;28;19997;-79
2021/03/06 13:52:28;;;;;;;;;;;7.30;59.80;;;;;;4946127;28;19929;-78
2021/03/06 13:54:54;;;;;;;;;;;7.20;54.00;;;;;;4949317;28;19911;-78
2021/03/06 13:57:22;;;;;;;;;;;7.20;53.70;;;;;;4952692;29;19910;-79
2021/03/06 13:59:48;;;;;;;;;;;7.00;54.30;;;;;;4950902;29;19918;-78
2021/03/06 14:02:15;;;;;;;;;;;7.00;59.00;;;;;;4951595;29;20013;-78
2021/03/06 14:04:41;;;;;;;;;;;6.90;56.80;;;;;;4952726;28;19910;-79
2021/03/06 14:07:07;;;;;;;;;;;6.90;55.90;;;;;;4952862;28;19924;-78
2021/03/06 14:09:35;;;;;;;;;;;6.80;55.70;;;;;;4968308;28;20336;-78
2021/03/06 14:12:00;;;;;;;;;;;6.80;55.70;;;;;;4951855;28;19961;-75
2021/03/06 14:14:26;;;;;;;;;;;6.70;52.00;;;;;;4953151;28;19918;-79
2021/03/06 14:16:54;;;;;;;;;;;6.60;53.00;;;;;;4948325;28;19914;-79
2021/03/06 14:19:22;;;;;;;;;;;6.60;55.70;;;;;;4949498;29;19910;-78
2021/03/06 14:21:50;;;;;;;;;;;6.50;55.60;;;;;;4955623;28;19965;-79
2021/03/06 14:24:15;;;;;;;;;;;6.50;58.10;;;;;;4951506;28;19922;-79
2021/03/06 14:26:46;;;;;;;;;;;6.30;55.70;;;;;;4950561;29;19912;-79
2021/03/06 14:29:14;;;;;;;;;;;6.30;56.50;;;;;;4951749;29;19937;-78
2021/03/06 14:31:39;;;;;;;;;;;6.20;56.00;;;;;;4952359;28;19915;-78